sensor_id;sensor_type;location;lat;lon;timestamp;P1;durP1;ratioP1;P2;durP2;ratioP2
9547;SDS011;4812;51.992;8.648;2023-01-10T00:01:49;8.43;;;5.53;;
9547;SDS011;4812;51.992;8.648;2023-01-10T00:04:16;14.37;;;5.67;;
9547;SDS011;4812;51.992;8.648;2023-01-10T00:06:44;9.53;;;5.00;;
9547;SDS011;4812;51.992;8.648;2023-01-10T00:09:13;11.97;;;4.73;;
9547;SDS011;4812;51.992;8.648;2023-01-10T00:11:40;8.07;;;4.50;;
9547;SDS011;4812;51.992;8.648;2023-01-10T00:14:26;9.63;;;3.90;;
9547;SDS011;4812;51.992;8.648;2023-01-10T00:16:55;9.13;;;4.30;;
9547;SDS011;4812;51.992;8.648;2023-01-10T00:19:22;7.00;;;3.47;;
9547;SDS011;4812;51.992;8.648;2023-01-10T00:21:50;6.40;;;3.13;;
9547;SDS011;4812;51.992;8.648;2023-01-10T00:24:21;5.00;;;3.00;;
9547;SDS011;4812;51.992;8.648;2023-01-10T00:26:49;5.23;;;3.67;;
9547;SDS011;4812;51.992;8.648;2023-01-10T00:29:17;4.87;;;3.57;;
9547;SDS011;4812;51.992;8.648;2023-01-10T00:31:45;7.10;;;3.23;;
9547;SDS011;4812;51.992;8.648;2023-01-10T00:34:13;3.77;;;2.73;;
9547;SDS011;4812;51.992;8.648;2023-01-10T00:36:41;3.67;;;2.87;;
9547;SDS011;4812;51.992;8.648;2023-01-10T00:39:10;4.00;;;2.53;;
9547;SDS011;4812;51.992;8.648;2023-01-10T00:41:40;4.53;;;2.93;;
9547;SDS011;4812;51.992;8.648;2023-01-10T00:44:25;8.70;;;3.67;;
9547;SDS011;4812;51.992;8.648;2023-01-10T00:46:53;6.23;;;3.10;;
9547;SDS011;4812;51.992;8.648;2023-01-10T00:49:20;10.27;;;3.30;;
9547;SDS011;4812;51.992;8.648;2023-01-10T00:51:48;11.17;;;3.10;;
9547;SDS011;4812;51.992;8.648;2023-01-10T00:54:16;7.97;;;3.10;;
9547;SDS011;4812;51.992;8.648;2023-01-10T00:56:45;5.53;;;3.20;;
9547;SDS011;4812;51.992;8.648;2023-01-10T00:59:12;6.00;;;3.20;;
9547;SDS011;4812;51.992;8.648;2023-01-10T01:01:40;7.17;;;3.33;;
9547;SDS011;4812;51.992;8.648;2023-01-10T01:04:07;6.73;;;3.17;;
9547;SDS011;4812;51.992;8.648;2023-01-10T01:06:37;5.97;;;3.50;;
9547;SDS011;4812;51.992;8.648;2023-01-10T01:09:05;5.97;;;3.23;;
9547;SDS011;4812;51.992;8.648;2023-01-10T01:11:36;5.70;;;4.03;;
9547;SDS011;4812;51.992;8.648;2023-01-10T01:14:07;5.37;;;3.70;;
9547;SDS011;4812;51.992;8.648;2023-01-10T01:16:35;6.27;;;3.57;;
9547;SDS011;4812;51.992;8.648;2023-01-10T01:19:03;7.00;;;3.30;;
9547;SDS011;4812;51.992;8.648;2023-01-10T01:21:31;9.70;;;3.80;;
9547;SDS011;4812;51.992;8.648;2023-01-10T01:23:59;11.60;;;5.17;;
9547;SDS011;4812;51.992;8.648;2023-01-10T01:26:30;8.37;;;4.10;;
9547;SDS011;4812;51.992;8.648;2023-01-10T01:29:00;7.03;;;4.70;;
9547;SDS011;4812;51.992;8.648;2023-01-10T01:46:01;12.97;;;5.90;;
9547;SDS011;4812;51.992;8.648;2023-01-10T01:48:32;16.50;;;6.13;;
9547;SDS011;4812;51.992;8.648;2023-01-10T01:51:03;12.20;;;6.37;;
9547;SDS011;4812;51.992;8.648;2023-01-10T01:53:36;14.50;;;6.40;;
9547;SDS011;4812;51.992;8.648;2023-01-10T01:56:08;17.17;;;8.00;;
9547;SDS011;4812;51.992;8.648;2023-01-10T01:58:40;23.90;;;8.33;;
9547;SDS011;4812;51.992;8.648;2023-01-10T02:01:13;17.60;;;7.87;;
9547;SDS011;4812;51.992;8.648;2023-01-10T02:29:20;16.73;;;8.73;;
9547;SDS011;4812;51.992;8.648;2023-01-10T02:32:10;16.37;;;8.40;;
9547;SDS011;4812;51.992;8.648;2023-01-10T02:34:46;18.33;;;8.63;;
9547;SDS011;4812;51.992;8.648;2023-01-10T02:37:24;24.47;;;8.50;;
9547;SDS011;4812;51.992;8.648;2023-01-10T02:40:03;21.43;;;8.90;;
9547;SDS011;4812;51.992;8.648;2023-01-10T02:42:35;26.97;;;9.70;;
9547;SDS011;4812;51.992;8.648;2023-01-10T02:45:11;27.53;;;9.53;;
9547;SDS011;4812;51.992;8.648;2023-01-10T02:47:42;19.47;;;9.00;;
9547;SDS011;4812;51.992;8.648;2023-01-10T02:50:22;19.17;;;8.60;;
9547;SDS011;4812;51.992;8.648;2023-01-10T02:52:56;16.67;;;8.53;;
9547;SDS011;4812;51.992;8.648;2023-01-10T02:55:27;29.97;;;9.53;;
9547;SDS011;4812;51.992;8.648;2023-01-10T02:58:03;22.53;;;8.30;;
9547;SDS011;4812;51.992;8.648;2023-01-10T03:00:35;17.90;;;9.17;;
9547;SDS011;4812;51.992;8.648;2023-01-10T03:03:10;22.80;;;8.80;;
9547;SDS011;4812;51.992;8.648;2023-01-10T03:05:46;16.70;;;7.37;;
9547;SDS011;4812;51.992;8.648;2023-01-10T03:08:22;24.97;;;8.20;;
9547;SDS011;4812;51.992;8.648;2023-01-10T03:10:53;22.87;;;7.90;;
9547;SDS011;4812;51.992;8.648;2023-01-10T03:13:24;17.57;;;8.27;;
9547;SDS011;4812;51.992;8.648;2023-01-10T03:15:53;21.80;;;7.57;;
9547;SDS011;4812;51.992;8.648;2023-01-10T03:18:26;23.53;;;7.67;;
9547;SDS011;4812;51.992;8.648;2023-01-10T03:20:57;21.07;;;7.10;;
9547;SDS011;4812;51.992;8.648;2023-01-10T03:23:26;16.53;;;8.00;;
9547;SDS011;4812;51.992;8.648;2023-01-10T03:25:54;15.93;;;7.97;;
9547;SDS011;4812;51.992;8.648;2023-01-10T03:28:23;20.63;;;7.43;;
9547;SDS011;4812;51.992;8.648;2023-01-10T03:30:53;23.80;;;7.67;;
9547;SDS011;4812;51.992;8.648;2023-01-10T03:33:27;16.83;;;7.40;;
9547;SDS011;4812;51.992;8.648;2023-01-10T03:36:01;14.47;;;6.97;;
9547;SDS011;4812;51.992;8.648;2023-01-10T03:38:36;21.93;;;7.17;;
9547;SDS011;4812;51.992;8.648;2023-01-10T03:41:10;17.63;;;6.80;;
9547;SDS011;4812;51.992;8.648;2023-01-10T03:43:39;18.87;;;6.53;;
9547;SDS011;4812;51.992;8.648;2023-01-10T03:46:31;17.33;;;7.33;;
9547;SDS011;4812;51.992;8.648;2023-01-10T03:49:04;17.30;;;5.37;;
9547;SDS011;4812;51.992;8.648;2023-01-10T03:51:32;19.87;;;6.13;;
9547;SDS011;4812;51.992;8.648;2023-01-10T03:54:00;20.33;;;6.40;;
9547;SDS011;4812;51.992;8.648;2023-01-10T03:56:28;17.97;;;6.13;;
9547;SDS011;4812;51.992;8.648;2023-01-10T03:58:56;15.33;;;6.00;;
9547;SDS011;4812;51.992;8.648;2023-01-10T04:01:23;21.17;;;6.83;;
9547;SDS011;4812;51.992;8.648;2023-01-10T04:03:52;16.50;;;6.17;;
9547;SDS011;4812;51.992;8.648;2023-01-10T04:06:21;12.17;;;6.13;;
9547;SDS011;4812;51.992;8.648;2023-01-10T04:08:48;9.57;;;5.27;;
9547;SDS011;4812;51.992;8.648;2023-01-10T04:11:16;14.73;;;6.17;;
9547;SDS011;4812;51.992;8.648;2023-01-10T04:13:44;14.50;;;6.23;;
9547;SDS011;4812;51.992;8.648;2023-01-10T04:16:11;11.80;;;6.27;;
9547;SDS011;4812;51.992;8.648;2023-01-10T04:18:39;12.90;;;6.73;;
9547;SDS011;4812;51.992;8.648;2023-01-10T04:21:07;14.37;;;6.17;;
9547;SDS011;4812;51.992;8.648;2023-01-10T04:23:36;18.97;;;6.50;;
9547;SDS011;4812;51.992;8.648;2023-01-10T04:26:03;14.93;;;5.63;;
9547;SDS011;4812;51.992;8.648;2023-01-10T04:28:31;15.97;;;6.37;;
9547;SDS011;4812;51.992;8.648;2023-01-10T04:30:59;14.03;;;6.50;;
9547;SDS011;4812;51.992;8.648;2023-01-10T04:33:27;14.70;;;5.87;;
9547;SDS011;4812;51.992;8.648;2023-01-10T04:35:56;11.63;;;5.67;;
9547;SDS011;4812;51.992;8.648;2023-01-10T04:38:24;12.47;;;6.10;;
9547;SDS011;4812;51.992;8.648;2023-01-10T04:40:53;12.53;;;5.57;;
9547;SDS011;4812;51.992;8.648;2023-01-10T04:43:21;18.70;;;5.30;;
9547;SDS011;4812;51.992;8.648;2023-01-10T04:45:49;14.40;;;6.20;;
9547;SDS011;4812;51.992;8.648;2023-01-10T04:48:17;18.20;;;6.77;;
9547;SDS011;4812;51.992;8.648;2023-01-10T04:50:47;16.70;;;6.53;;
9547;SDS011;4812;51.992;8.648;2023-01-10T04:53:16;18.23;;;7.40;;
9547;SDS011;4812;51.992;8.648;2023-01-10T04:55:44;21.83;;;7.50;;
9547;SDS011;4812;51.992;8.648;2023-01-10T04:58:13;20.53;;;8.03;;
9547;SDS011;4812;51.992;8.648;2023-01-10T05:00:41;23.67;;;9.20;;
9547;SDS011;4812;51.992;8.648;2023-01-10T05:03:09;24.77;;;7.63;;
9547;SDS011;4812;51.992;8.648;2023-01-10T05:05:37;21.27;;;8.37;;
9547;SDS011;4812;51.992;8.648;2023-01-10T05:08:05;19.23;;;8.80;;
9547;SDS011;4812;51.992;8.648;2023-01-10T05:10:33;30.37;;;10.23;;
9547;SDS011;4812;51.992;8.648;2023-01-10T05:13:04;25.87;;;9.67;;
9547;SDS011;4812;51.992;8.648;2023-01-10T05:15:33;20.20;;;9.77;;
9547;SDS011;4812;51.992;8.648;2023-01-10T05:18:02;20.53;;;10.03;;
9547;SDS011;4812;51.992;8.648;2023-01-10T05:20:30;22.43;;;10.23;;
9547;SDS011;4812;51.992;8.648;2023-01-10T05:22:58;21.07;;;9.33;;
9547;SDS011;4812;51.992;8.648;2023-01-10T05:25:26;21.87;;;9.30;;
9547;SDS011;4812;51.992;8.648;2023-01-10T05:27:54;25.83;;;9.53;;
9547;SDS011;4812;51.992;8.648;2023-01-10T05:30:26;25.73;;;10.50;;
9547;SDS011;4812;51.992;8.648;2023-01-10T05:32:56;26.80;;;9.43;;
9547;SDS011;4812;51.992;8.648;2023-01-10T05:35:24;21.07;;;9.87;;
9547;SDS011;4812;51.992;8.648;2023-01-10T05:37:52;20.50;;;9.57;;
9547;SDS011;4812;51.992;8.648;2023-01-10T05:40:20;18.33;;;9.97;;
9547;SDS011;4812;51.992;8.648;2023-01-10T05:42:49;19.40;;;9.93;;
9547;SDS011;4812;51.992;8.648;2023-01-10T05:45:17;19.37;;;9.80;;
9547;SDS011;4812;51.992;8.648;2023-01-10T05:47:45;24.47;;;10.37;;
9547;SDS011;4812;51.992;8.648;2023-01-10T05:50:14;30.73;;;10.60;;
9547;SDS011;4812;51.992;8.648;2023-01-10T05:52:44;20.10;;;9.63;;
9547;SDS011;4812;51.992;8.648;2023-01-10T05:55:12;21.50;;;9.10;;
9547;SDS011;4812;51.992;8.648;2023-01-10T05:57:40;29.63;;;10.23;;
9547;SDS011;4812;51.992;8.648;2023-01-10T06:00:08;22.80;;;10.33;;
9547;SDS011;4812;51.992;8.648;2023-01-10T06:02:37;27.10;;;9.53;;
9547;SDS011;4812;51.992;8.648;2023-01-10T06:05:05;19.10;;;8.97;;
9547;SDS011;4812;51.992;8.648;2023-01-10T06:07:34;24.90;;;9.40;;
9547;SDS011;4812;51.992;8.648;2023-01-10T06:10:02;19.20;;;9.87;;
9547;SDS011;4812;51.992;8.648;2023-01-10T06:12:29;24.83;;;9.30;;
9547;SDS011;4812;51.992;8.648;2023-01-10T06:14:57;30.10;;;8.63;;
9547;SDS011;4812;51.992;8.648;2023-01-10T06:17:25;20.07;;;9.10;;
9547;SDS011;4812;51.992;8.648;2023-01-10T06:19:52;24.77;;;10.57;;
9547;SDS011;4812;51.992;8.648;2023-01-10T06:22:20;23.13;;;9.20;;
9547;SDS011;4812;51.992;8.648;2023-01-10T06:24:49;21.90;;;9.87;;
9547;SDS011;4812;51.992;8.648;2023-01-10T06:27:16;21.10;;;8.57;;
9547;SDS011;4812;51.992;8.648;2023-01-10T06:29:44;26.23;;;9.87;;
9547;SDS011;4812;51.992;8.648;2023-01-10T06:32:14;21.67;;;9.77;;
9547;SDS011;4812;51.992;8.648;2023-01-10T06:34:42;22.20;;;9.10;;
9547;SDS011;4812;51.992;8.648;2023-01-10T06:37:09;22.00;;;10.00;;
9547;SDS011;4812;51.992;8.648;2023-01-10T06:39:37;28.47;;;10.27;;
9547;SDS011;4812;51.992;8.648;2023-01-10T06:42:06;21.13;;;9.77;;
9547;SDS011;4812;51.992;8.648;2023-01-10T06:44:34;17.23;;;10.27;;
9547;SDS011;4812;51.992;8.648;2023-01-10T06:47:01;27.47;;;10.27;;
9547;SDS011;4812;51.992;8.648;2023-01-10T06:49:29;18.60;;;9.63;;
9547;SDS011;4812;51.992;8.648;2023-01-10T06:51:56;27.57;;;10.77;;
9547;SDS011;4812;51.992;8.648;2023-01-10T06:54:24;22.23;;;9.67;;
9547;SDS011;4812;51.992;8.648;2023-01-10T06:56:52;26.60;;;10.43;;
9547;SDS011;4812;51.992;8.648;2023-01-10T06:59:21;25.30;;;10.27;;
9547;SDS011;4812;51.992;8.648;2023-01-10T07:01:48;22.97;;;10.70;;
9547;SDS011;4812;51.992;8.648;2023-01-10T07:04:16;26.17;;;10.83;;
9547;SDS011;4812;51.992;8.648;2023-01-10T07:06:44;22.07;;;10.53;;
9547;SDS011;4812;51.992;8.648;2023-01-10T07:09:11;19.97;;;11.23;;
9547;SDS011;4812;51.992;8.648;2023-01-10T07:11:39;26.03;;;11.50;;
9547;SDS011;4812;51.992;8.648;2023-01-10T07:14:06;23.00;;;10.80;;
9547;SDS011;4812;51.992;8.648;2023-01-10T07:16:36;18.47;;;10.47;;
9547;SDS011;4812;51.992;8.648;2023-01-10T07:19:04;29.63;;;11.53;;
9547;SDS011;4812;51.992;8.648;2023-01-10T07:21:31;17.50;;;10.00;;
9547;SDS011;4812;51.992;8.648;2023-01-10T07:23:59;24.47;;;11.17;;
9547;SDS011;4812;51.992;8.648;2023-01-10T07:26:28;25.73;;;10.80;;
9547;SDS011;4812;51.992;8.648;2023-01-10T07:28:55;25.23;;;11.50;;
9547;SDS011;4812;51.992;8.648;2023-01-10T07:31:23;28.53;;;10.70;;
9547;SDS011;4812;51.992;8.648;2023-01-10T07:33:52;24.50;;;10.87;;
9547;SDS011;4812;51.992;8.648;2023-01-10T07:36:20;33.53;;;12.17;;
9547;SDS011;4812;51.992;8.648;2023-01-10T07:38:48;29.67;;;13.10;;
9547;SDS011;4812;51.992;8.648;2023-01-10T07:41:16;26.07;;;11.70;;
9547;SDS011;4812;51.992;8.648;2023-01-10T07:43:43;29.80;;;12.40;;
9547;SDS011;4812;51.992;8.648;2023-01-10T07:46:11;19.60;;;10.57;;
9547;SDS011;4812;51.992;8.648;2023-01-10T07:48:38;23.30;;;11.63;;
9547;SDS011;4812;51.992;8.648;2023-01-10T07:51:08;22.87;;;12.07;;
9547;SDS011;4812;51.992;8.648;2023-01-10T07:53:36;29.37;;;11.87;;
9547;SDS011;4812;51.992;8.648;2023-01-10T07:56:04;27.70;;;11.73;;
9547;SDS011;4812;51.992;8.648;2023-01-10T07:58:32;23.23;;;11.17;;
9547;SDS011;4812;51.992;8.648;2023-01-10T08:01:01;19.33;;;11.00;;
9547;SDS011;4812;51.992;8.648;2023-01-10T08:03:29;21.63;;;11.77;;
9547;SDS011;4812;51.992;8.648;2023-01-10T08:05:58;37.07;;;11.90;;
9547;SDS011;4812;51.992;8.648;2023-01-10T08:08:27;25.50;;;10.50;;
9547;SDS011;4812;51.992;8.648;2023-01-10T08:10:55;24.80;;;10.77;;
9547;SDS011;4812;51.992;8.648;2023-01-10T08:13:24;26.10;;;11.23;;
9547;SDS011;4812;51.992;8.648;2023-01-10T08:15:52;16.90;;;9.67;;
9547;SDS011;4812;51.992;8.648;2023-01-10T08:18:20;26.83;;;10.93;;
9547;SDS011;4812;51.992;8.648;2023-01-10T08:20:49;21.70;;;9.67;;
9547;SDS011;4812;51.992;8.648;2023-01-10T08:23:17;23.97;;;10.20;;
9547;SDS011;4812;51.992;8.648;2023-01-10T08:25:46;24.27;;;9.83;;
9547;SDS011;4812;51.992;8.648;2023-01-10T08:28:14;24.87;;;9.93;;
9547;SDS011;4812;51.992;8.648;2023-01-10T08:30:41;24.20;;;10.57;;
9547;SDS011;4812;51.992;8.648;2023-01-10T08:33:10;20.37;;;9.57;;
9547;SDS011;4812;51.992;8.648;2023-01-10T08:35:38;16.13;;;9.43;;
9547;SDS011;4812;51.992;8.648;2023-01-10T08:38:06;21.07;;;9.87;;
9547;SDS011;4812;51.992;8.648;2023-01-10T08:40:34;26.67;;;9.77;;
9547;SDS011;4812;51.992;8.648;2023-01-10T08:43:04;21.17;;;9.13;;
9547;SDS011;4812;51.992;8.648;2023-01-10T08:45:33;19.30;;;9.40;;
9547;SDS011;4812;51.992;8.648;2023-01-10T08:48:01;28.63;;;9.93;;
9547;SDS011;4812;51.992;8.648;2023-01-10T08:50:30;22.30;;;8.90;;
9547;SDS011;4812;51.992;8.648;2023-01-10T08:52:58;24.80;;;10.73;;
9547;SDS011;4812;51.992;8.648;2023-01-10T08:55:26;21.63;;;9.43;;
9547;SDS011;4812;51.992;8.648;2023-01-10T08:57:57;25.23;;;9.00;;
9547;SDS011;4812;51.992;8.648;2023-01-10T09:00:27;20.07;;;8.93;;
9547;SDS011;4812;51.992;8.648;2023-01-10T09:02:54;25.53;;;9.00;;
9547;SDS011;4812;51.992;8.648;2023-01-10T09:05:22;21.57;;;8.47;;
9547;SDS011;4812;51.992;8.648;2023-01-10T09:07:56;21.60;;;11.30;;
9547;SDS011;4812;51.992;8.648;2023-01-10T09:10:25;19.23;;;7.87;;
9547;SDS011;4812;51.992;8.648;2023-01-10T09:12:52;23.00;;;8.50;;
9547;SDS011;4812;51.992;8.648;2023-01-10T09:15:27;17.00;;;7.97;;
9547;SDS011;4812;51.992;8.648;2023-01-10T09:17:56;22.90;;;8.23;;
9547;SDS011;4812;51.992;8.648;2023-01-10T09:20:25;23.20;;;9.53;;
9547;SDS011;4812;51.992;8.648;2023-01-10T09:22:53;17.10;;;9.43;;
9547;SDS011;4812;51.992;8.648;2023-01-10T09:25:22;21.87;;;9.63;;
9547;SDS011;4812;51.992;8.648;2023-01-10T09:27:54;14.20;;;8.80;;
9547;SDS011;4812;51.992;8.648;2023-01-10T09:30:22;22.97;;;9.67;;
9547;SDS011;4812;51.992;8.648;2023-01-10T09:32:52;17.63;;;9.13;;
9547;SDS011;4812;51.992;8.648;2023-01-10T09:35:20;23.40;;;9.90;;
9547;SDS011;4812;51.992;8.648;2023-01-10T09:37:48;22.03;;;9.30;;
9547;SDS011;4812;51.992;8.648;2023-01-10T09:40:16;25.20;;;9.37;;
9547;SDS011;4812;51.992;8.648;2023-01-10T09:42:49;20.70;;;9.13;;
9547;SDS011;4812;51.992;8.648;2023-01-10T09:45:24;22.97;;;9.80;;
9547;SDS011;4812;51.992;8.648;2023-01-10T09:48:00;21.70;;;10.23;;
9547;SDS011;4812;51.992;8.648;2023-01-10T09:50:30;18.97;;;9.47;;
9547;SDS011;4812;51.992;8.648;2023-01-10T09:53:02;22.53;;;9.60;;
9547;SDS011;4812;51.992;8.648;2023-01-10T09:55:33;21.47;;;9.83;;
9547;SDS011;4812;51.992;8.648;2023-01-10T09:58:03;22.43;;;10.20;;
9547;SDS011;4812;51.992;8.648;2023-01-10T10:00:35;26.80;;;10.27;;
9547;SDS011;4812;51.992;8.648;2023-01-10T10:03:12;23.10;;;10.23;;
9547;SDS011;4812;51.992;8.648;2023-01-10T10:05:47;22.07;;;9.43;;
9547;SDS011;4812;51.992;8.648;2023-01-10T10:08:22;22.00;;;9.50;;
9547;SDS011;4812;51.992;8.648;2023-01-10T10:10:52;21.77;;;10.37;;
9547;SDS011;4812;51.992;8.648;2023-01-10T10:13:27;28.30;;;10.10;;
9547;SDS011;4812;51.992;8.648;2023-01-10T10:16:03;19.17;;;8.23;;
9547;SDS011;4812;51.992;8.648;2023-01-10T10:18:38;20.03;;;8.90;;
9547;SDS011;4812;51.992;8.648;2023-01-10T10:21:13;19.93;;;9.80;;
9547;SDS011;4812;51.992;8.648;2023-01-10T10:23:47;23.60;;;10.10;;
9547;SDS011;4812;51.992;8.648;2023-01-10T10:26:25;22.77;;;9.57;;
9547;SDS011;4812;51.992;8.648;2023-01-10T10:29:00;21.80;;;9.93;;
9547;SDS011;4812;51.992;8.648;2023-01-10T10:31:40;30.87;;;10.47;;
9547;SDS011;4812;51.992;8.648;2023-01-10T10:34:19;22.50;;;9.13;;
9547;SDS011;4812;51.992;8.648;2023-01-10T10:36:50;32.83;;;9.97;;
9547;SDS011;4812;51.992;8.648;2023-01-10T10:39:21;22.70;;;9.83;;
9547;SDS011;4812;51.992;8.648;2023-01-10T10:41:51;22.93;;;10.23;;
9547;SDS011;4812;51.992;8.648;2023-01-10T10:47:05;25.77;;;10.13;;
9547;SDS011;4812;51.992;8.648;2023-01-10T10:49:40;25.30;;;11.50;;
9547;SDS011;4812;51.992;8.648;2023-01-10T10:52:12;26.37;;;10.30;;
9547;SDS011;4812;51.992;8.648;2023-01-10T10:54:43;26.80;;;10.57;;
9547;SDS011;4812;51.992;8.648;2023-01-10T10:57:13;23.87;;;10.47;;
9547;SDS011;4812;51.992;8.648;2023-01-10T10:59:46;23.40;;;10.80;;
9547;SDS011;4812;51.992;8.648;2023-01-10T11:02:22;21.93;;;9.47;;
9547;SDS011;4812;51.992;8.648;2023-01-10T11:04:54;25.13;;;10.23;;
9547;SDS011;4812;51.992;8.648;2023-01-10T11:07:23;24.43;;;10.20;;
9547;SDS011;4812;51.992;8.648;2023-01-10T11:09:53;20.43;;;9.17;;
9547;SDS011;4812;51.992;8.648;2023-01-10T11:12:39;16.87;;;9.20;;
9547;SDS011;4812;51.992;8.648;2023-01-10T11:15:10;24.03;;;9.87;;
9547;SDS011;4812;51.992;8.648;2023-01-10T11:17:37;19.10;;;9.80;;
9547;SDS011;4812;51.992;8.648;2023-01-10T11:20:12;25.57;;;10.27;;
9547;SDS011;4812;51.992;8.648;2023-01-10T11:22:43;17.47;;;9.80;;
9547;SDS011;4812;51.992;8.648;2023-01-10T11:25:13;18.30;;;9.83;;
9547;SDS011;4812;51.992;8.648;2023-01-10T11:27:44;26.33;;;9.60;;
9547;SDS011;4812;51.992;8.648;2023-01-10T11:30:15;20.00;;;9.50;;
9547;SDS011;4812;51.992;8.648;2023-01-10T11:32:47;26.30;;;9.33;;
9547;SDS011;4812;51.992;8.648;2023-01-10T11:35:18;25.70;;;9.67;;
9547;SDS011;4812;51.992;8.648;2023-01-10T11:37:57;19.33;;;8.07;;
9547;SDS011;4812;51.992;8.648;2023-01-10T11:40:26;24.83;;;9.80;;
9547;SDS011;4812;51.992;8.648;2023-01-10T11:42:54;19.97;;;8.60;;
9547;SDS011;4812;51.992;8.648;2023-01-10T11:45:28;19.90;;;8.27;;
9547;SDS011;4812;51.992;8.648;2023-01-10T11:47:59;23.03;;;8.50;;
9547;SDS011;4812;51.992;8.648;2023-01-10T11:50:34;22.33;;;8.67;;
9547;SDS011;4812;51.992;8.648;2023-01-10T11:53:04;20.57;;;8.23;;
9547;SDS011;4812;51.992;8.648;2023-01-10T11:55:33;19.43;;;8.13;;
9547;SDS011;4812;51.992;8.648;2023-01-10T11:58:04;23.43;;;8.23;;
9547;SDS011;4812;51.992;8.648;2023-01-10T12:00:33;21.90;;;8.10;;
9547;SDS011;4812;51.992;8.648;2023-01-10T12:03:20;28.83;;;8.97;;
9547;SDS011;4812;51.992;8.648;2023-01-10T12:05:54;17.57;;;8.63;;
9547;SDS011;4812;51.992;8.648;2023-01-10T12:08:25;19.93;;;8.00;;
9547;SDS011;4812;51.992;8.648;2023-01-10T12:10:58;16.53;;;8.30;;
9547;SDS011;4812;51.992;8.648;2023-01-10T12:13:28;15.33;;;7.57;;
9547;SDS011;4812;51.992;8.648;2023-01-10T12:18:44;19.07;;;7.60;;
9547;SDS011;4812;51.992;8.648;2023-01-10T12:21:13;14.67;;;6.77;;
9547;SDS011;4812;51.992;8.648;2023-01-10T12:23:43;15.23;;;6.90;;
9547;SDS011;4812;51.992;8.648;2023-01-10T12:26:11;15.90;;;7.20;;
9547;SDS011;4812;51.992;8.648;2023-01-10T12:28:40;18.77;;;7.87;;
9547;SDS011;4812;51.992;8.648;2023-01-10T12:31:11;18.53;;;7.60;;
9547;SDS011;4812;51.992;8.648;2023-01-10T12:33:40;16.40;;;6.23;;
9547;SDS011;4812;51.992;8.648;2023-01-10T12:36:15;22.30;;;7.37;;
9547;SDS011;4812;51.992;8.648;2023-01-10T12:38:53;17.87;;;6.60;;
9547;SDS011;4812;51.992;8.648;2023-01-10T12:41:33;12.00;;;5.93;;
9547;SDS011;4812;51.992;8.648;2023-01-10T12:44:23;17.97;;;7.03;;
9547;SDS011;4812;51.992;8.648;2023-01-10T12:46:55;13.63;;;7.80;;
9547;SDS011;4812;51.992;8.648;2023-01-10T12:49:34;18.87;;;7.80;;
9547;SDS011;4812;51.992;8.648;2023-01-10T12:52:09;13.93;;;6.97;;
9547;SDS011;4812;51.992;8.648;2023-01-10T12:54:41;18.70;;;7.60;;
9547;SDS011;4812;51.992;8.648;2023-01-10T12:57:15;21.87;;;7.80;;
9547;SDS011;4812;51.992;8.648;2023-01-10T12:59:48;15.87;;;7.67;;
9547;SDS011;4812;51.992;8.648;2023-01-10T13:02:16;17.47;;;8.33;;
9547;SDS011;4812;51.992;8.648;2023-01-10T13:04:46;17.73;;;9.03;;
9547;SDS011;4812;51.992;8.648;2023-01-10T13:07:17;13.77;;;6.40;;
9547;SDS011;4812;51.992;8.648;2023-01-10T13:09:46;19.43;;;6.87;;
9547;SDS011;4812;51.992;8.648;2023-01-10T13:12:15;16.17;;;6.83;;
9547;SDS011;4812;51.992;8.648;2023-01-10T13:14:47;18.10;;;8.03;;
9547;SDS011;4812;51.992;8.648;2023-01-10T13:17:20;16.27;;;8.37;;
9547;SDS011;4812;51.992;8.648;2023-01-10T13:22:46;16.67;;;6.93;;
9547;SDS011;4812;51.992;8.648;2023-01-10T13:25:17;13.10;;;7.87;;
9547;SDS011;4812;51.992;8.648;2023-01-10T13:27:47;27.60;;;8.00;;
9547;SDS011;4812;51.992;8.648;2023-01-10T13:30:23;17.40;;;7.00;;
9547;SDS011;4812;51.992;8.648;2023-01-10T13:32:54;15.60;;;7.00;;
9547;SDS011;4812;51.992;8.648;2023-01-10T13:35:25;20.60;;;7.60;;
9547;SDS011;4812;51.992;8.648;2023-01-10T13:37:55;18.53;;;7.80;;
9547;SDS011;4812;51.992;8.648;2023-01-10T13:40:24;24.73;;;7.50;;
9547;SDS011;4812;51.992;8.648;2023-01-10T13:49:23;15.27;;;7.17;;
9547;SDS011;4812;51.992;8.648;2023-01-10T13:55:21;13.63;;;6.90;;
9547;SDS011;4812;51.992;8.648;2023-01-10T13:57:55;12.60;;;6.90;;
9547;SDS011;4812;51.992;8.648;2023-01-10T14:03:47;15.57;;;6.33;;
9547;SDS011;4812;51.992;8.648;2023-01-10T14:06:21;10.77;;;6.17;;
9547;SDS011;4812;51.992;8.648;2023-01-10T14:09:04;17.90;;;7.33;;
9547;SDS011;4812;51.992;8.648;2023-01-10T14:11:56;13.57;;;6.67;;
9547;SDS011;4812;51.992;8.648;2023-01-10T14:14:25;18.97;;;6.50;;
9547;SDS011;4812;51.992;8.648;2023-01-10T14:16:54;14.53;;;6.30;;
9547;SDS011;4812;51.992;8.648;2023-01-10T14:19:24;17.60;;;6.60;;
9547;SDS011;4812;51.992;8.648;2023-01-10T14:21:54;14.07;;;6.40;;
9547;SDS011;4812;51.992;8.648;2023-01-10T14:24:24;15.07;;;6.67;;
9547;SDS011;4812;51.992;8.648;2023-01-10T14:26:54;12.83;;;6.20;;
9547;SDS011;4812;51.992;8.648;2023-01-10T14:29:25;16.97;;;6.13;;
9547;SDS011;4812;51.992;8.648;2023-01-10T14:31:57;11.53;;;6.30;;
9547;SDS011;4812;51.992;8.648;2023-01-10T14:34:26;11.57;;;5.53;;
9547;SDS011;4812;51.992;8.648;2023-01-10T14:36:54;15.67;;;6.10;;
9547;SDS011;4812;51.992;8.648;2023-01-10T14:39:24;11.40;;;5.77;;
9547;SDS011;4812;51.992;8.648;2023-01-10T14:41:53;15.43;;;5.80;;
9547;SDS011;4812;51.992;8.648;2023-01-10T14:44:26;10.43;;;5.43;;
9547;SDS011;4812;51.992;8.648;2023-01-10T14:46:57;15.90;;;5.43;;
9547;SDS011;4812;51.992;8.648;2023-01-10T14:49:28;17.03;;;5.80;;
9547;SDS011;4812;51.992;8.648;2023-01-10T14:52:10;15.20;;;5.47;;
9547;SDS011;4812;51.992;8.648;2023-01-10T14:54:39;12.83;;;6.30;;
9547;SDS011;4812;51.992;8.648;2023-01-10T14:57:16;15.83;;;5.17;;
9547;SDS011;4812;51.992;8.648;2023-01-10T14:59:46;12.53;;;5.67;;
9547;SDS011;4812;51.992;8.648;2023-01-10T15:02:15;13.63;;;5.93;;
9547;SDS011;4812;51.992;8.648;2023-01-10T15:04:52;14.60;;;5.90;;
9547;SDS011;4812;51.992;8.648;2023-01-10T15:07:22;13.63;;;5.93;;
9547;SDS011;4812;51.992;8.648;2023-01-10T15:09:51;16.07;;;6.33;;
9547;SDS011;4812;51.992;8.648;2023-01-10T15:12:21;13.90;;;6.10;;
9547;SDS011;4812;51.992;8.648;2023-01-10T15:14:52;12.10;;;5.50;;
9547;SDS011;4812;51.992;8.648;2023-01-10T15:17:24;12.87;;;6.03;;
9547;SDS011;4812;51.992;8.648;2023-01-10T15:19:52;15.40;;;5.80;;
9547;SDS011;4812;51.992;8.648;2023-01-10T15:22:23;15.50;;;6.27;;
9547;SDS011;4812;51.992;8.648;2023-01-10T15:24:57;12.90;;;4.87;;
9547;SDS011;4812;51.992;8.648;2023-01-10T15:27:27;8.60;;;5.33;;
9547;SDS011;4812;51.992;8.648;2023-01-10T15:29:55;14.00;;;5.43;;
9547;SDS011;4812;51.992;8.648;2023-01-10T15:32:25;15.03;;;4.77;;
9547;SDS011;4812;51.992;8.648;2023-01-10T15:34:55;10.00;;;5.30;;
9547;SDS011;4812;51.992;8.648;2023-01-10T15:37:23;11.27;;;6.40;;
9547;SDS011;4812;51.992;8.648;2023-01-10T15:39:52;11.90;;;5.40;;
9547;SDS011;4812;51.992;8.648;2023-01-10T15:42:20;9.30;;;4.80;;
9547;SDS011;4812;51.992;8.648;2023-01-10T15:44:50;12.83;;;5.20;;
9547;SDS011;4812;51.992;8.648;2023-01-10T15:50:16;17.17;;;5.70;;
9547;SDS011;4812;51.992;8.648;2023-01-10T15:52:46;9.17;;;5.57;;
9547;SDS011;4812;51.992;8.648;2023-01-10T15:55:33;11.87;;;5.63;;
9547;SDS011;4812;51.992;8.648;2023-01-10T15:58:02;11.87;;;5.57;;
9547;SDS011;4812;51.992;8.648;2023-01-10T16:00:32;11.70;;;5.53;;
9547;SDS011;4812;51.992;8.648;2023-01-10T16:02:59;12.50;;;5.37;;
9547;SDS011;4812;51.992;8.648;2023-01-10T16:05:27;15.40;;;5.70;;
9547;SDS011;4812;51.992;8.648;2023-01-10T16:07:54;8.17;;;4.80;;
9547;SDS011;4812;51.992;8.648;2023-01-10T16:10:23;12.33;;;5.50;;
9547;SDS011;4812;51.992;8.648;2023-01-10T16:12:52;13.23;;;5.60;;
9547;SDS011;4812;51.992;8.648;2023-01-10T16:15:55;10.43;;;4.90;;
9547;SDS011;4812;51.992;8.648;2023-01-10T16:18:26;7.83;;;4.93;;
9547;SDS011;4812;51.992;8.648;2023-01-10T16:20:55;8.63;;;5.10;;
9547;SDS011;4812;51.992;8.648;2023-01-10T16:23:25;14.77;;;5.10;;
9547;SDS011;4812;51.992;8.648;2023-01-10T16:25:56;7.60;;;4.97;;